sensor_id;sensor_type;location;lat;lon;timestamp;P1;durP1;ratioP1;P2;durP2;ratioP2
70126;SDS011;57491;42.694;23.314;2023-05-10T00:00:24;7.07;;;4.35;;
70126;SDS011;57491;42.694;23.314;2023-05-10T00:02:51;5.85;;;4.47;;
70126;SDS011;57491;42.694;23.314;2023-05-10T00:05:19;17.77;;;10.57;;
70126;SDS011;57491;42.694;23.314;2023-05-10T00:07:46;5.97;;;4.55;;
70126;SDS011;57491;42.694;23.314;2023-05-10T00:10:13;6.18;;;4.82;;
70126;SDS011;57491;42.694;23.314;2023-05-10T00:12:41;7.93;;;4.75;;
70126;SDS011;57491;42.694;23.314;2023-05-10T00:15:08;7.40;;;5.72;;
70126;SDS011;57491;42.694;23.314;2023-05-10T00:17:36;7.38;;;5.60;;
70126;SDS011;57491;42.694;23.314;2023-05-10T00:20:04;8.18;;;5.57;;
70126;SDS011;57491;42.694;23.314;2023-05-10T00:22:33;9.23;;;6.32;;
70126;SDS011;57491;42.694;23.314;2023-05-10T00:25:00;8.63;;;6.32;;
70126;SDS011;57491;42.694;23.314;2023-05-10T00:27:27;9.27;;;6.65;;
70126;SDS011;57491;42.694;23.314;2023-05-10T00:29:54;10.60;;;6.53;;
70126;SDS011;57491;42.694;23.314;2023-05-10T00:32:20;12.23;;;7.60;;
70126;SDS011;57491;42.694;23.314;2023-05-10T00:34:47;9.32;;;6.85;;
70126;SDS011;57491;42.694;23.314;2023-05-10T00:37:15;8.55;;;6.22;;
70126;SDS011;57491;42.694;23.314;2023-05-10T00:39:43;10.10;;;7.45;;
70126;SDS011;57491;42.694;23.314;2023-05-10T00:42:10;9.38;;;6.65;;
70126;SDS011;57491;42.694;23.314;2023-05-10T00:44:37;10.18;;;7.28;;
70126;SDS011;57491;42.694;23.314;2023-05-10T00:47:04;9.70;;;6.95;;
70126;SDS011;57491;42.694;23.314;2023-05-10T00:49:31;11.82;;;7.53;;
70126;SDS011;57491;42.694;23.314;2023-05-10T00:51:59;11.87;;;8.40;;
70126;SDS011;57491;42.694;23.314;2023-05-10T00:54:27;10.25;;;7.47;;
70126;SDS011;57491;42.694;23.314;2023-05-10T00:56:55;10.10;;;7.47;;
70126;SDS011;57491;42.694;23.314;2023-05-10T00:59:22;8.70;;;6.97;;
70126;SDS011;57491;42.694;23.314;2023-05-10T01:01:51;11.75;;;7.28;;
70126;SDS011;57491;42.694;23.314;2023-05-10T01:06:50;9.48;;;7.90;;
70126;SDS011;57491;42.694;23.314;2023-05-10T01:09:19;9.88;;;7.53;;
70126;SDS011;57491;42.694;23.314;2023-05-10T01:11:46;10.40;;;8.30;;
70126;SDS011;57491;42.694;23.314;2023-05-10T01:14:16;12.45;;;8.57;;
70126;SDS011;57491;42.694;23.314;2023-05-10T01:16:45;15.10;;;8.88;;
70126;SDS011;57491;42.694;23.314;2023-05-10T01:19:17;11.05;;;8.52;;
70126;SDS011;57491;42.694;23.314;2023-05-10T01:21:48;9.95;;;7.88;;
70126;SDS011;57491;42.694;23.314;2023-05-10T01:24:25;9.85;;;7.80;;
70126;SDS011;57491;42.694;23.314;2023-05-10T01:27:14;11.30;;;8.13;;
70126;SDS011;57491;42.694;23.314;2023-05-10T01:33:06;8.68;;;7.18;;
70126;SDS011;57491;42.694;23.314;2023-05-10T01:35:39;8.65;;;7.10;;
70126;SDS011;57491;42.694;23.314;2023-05-10T01:38:12;7.78;;;6.80;;
70126;SDS011;57491;42.694;23.314;2023-05-10T01:40:46;10.25;;;5.53;;
70126;SDS011;57491;42.694;23.314;2023-05-10T01:43:26;8.73;;;7.00;;
70126;SDS011;57491;42.694;23.314;2023-05-10T01:45:57;8.52;;;6.75;;
70126;SDS011;57491;42.694;23.314;2023-05-10T01:48:31;7.05;;;5.97;;
70126;SDS011;57491;42.694;23.314;2023-05-10T01:50:59;8.63;;;6.63;;
70126;SDS011;57491;42.694;23.314;2023-05-10T01:53:27;8.18;;;6.57;;
70126;SDS011;57491;42.694;23.314;2023-05-10T01:55:55;8.43;;;6.72;;
70126;SDS011;57491;42.694;23.314;2023-05-10T01:58:24;8.32;;;6.55;;
70126;SDS011;57491;42.694;23.314;2023-05-10T02:00:55;8.40;;;6.47;;
70126;SDS011;57491;42.694;23.314;2023-05-10T02:03:24;7.82;;;6.43;;
70126;SDS011;57491;42.694;23.314;2023-05-10T02:05:54;8.50;;;6.45;;
70126;SDS011;57491;42.694;23.314;2023-05-10T02:08:24;7.90;;;6.05;;
70126;SDS011;57491;42.694;23.314;2023-05-10T02:18:15;6.03;;;5.15;;
70126;SDS011;57491;42.694;23.314;2023-05-10T02:20:44;7.70;;;4.70;;
70126;SDS011;57491;42.694;23.314;2023-05-10T02:23:14;5.90;;;4.47;;
70126;SDS011;57491;42.694;23.314;2023-05-10T02:25:44;6.55;;;5.18;;
70126;SDS011;57491;42.694;23.314;2023-05-10T02:28:12;8.23;;;4.80;;
70126;SDS011;57491;42.694;23.314;2023-05-10T02:30:41;7.25;;;4.57;;
70126;SDS011;57491;42.694;23.314;2023-05-10T02:33:09;8.13;;;5.40;;
70126;SDS011;57491;42.694;23.314;2023-05-10T02:35:38;8.13;;;5.82;;
70126;SDS011;57491;42.694;23.314;2023-05-10T02:38:05;7.75;;;5.00;;
70126;SDS011;57491;42.694;23.314;2023-05-10T02:43:03;6.90;;;5.45;;
70126;SDS011;57491;42.694;23.314;2023-05-10T02:45:32;6.50;;;4.82;;
70126;SDS011;57491;42.694;23.314;2023-05-10T02:48:04;6.28;;;3.80;;
70126;SDS011;57491;42.694;23.314;2023-05-10T02:50:32;6.63;;;4.38;;
70126;SDS011;57491;42.694;23.314;2023-05-10T02:53:01;5.38;;;3.88;;
70126;SDS011;57491;42.694;23.314;2023-05-10T02:55:37;7.63;;;4.65;;
70126;SDS011;57491;42.694;23.314;2023-05-10T02:58:06;7.03;;;4.45;;
70126;SDS011;57491;42.694;23.314;2023-05-10T03:00:34;7.07;;;5.15;;
70126;SDS011;57491;42.694;23.314;2023-05-10T03:05:28;5.10;;;4.30;;
70126;SDS011;57491;42.694;23.314;2023-05-10T03:07:56;7.00;;;4.50;;
70126;SDS011;57491;42.694;23.314;2023-05-10T03:10:27;7.22;;;3.60;;
70126;SDS011;57491;42.694;23.314;2023-05-10T03:13:06;6.55;;;4.57;;
70126;SDS011;57491;42.694;23.314;2023-05-10T03:15:42;7.07;;;4.95;;
70126;SDS011;57491;42.694;23.314;2023-05-10T03:18:18;7.35;;;4.95;;
70126;SDS011;57491;42.694;23.314;2023-05-10T03:20:49;6.75;;;4.97;;
70126;SDS011;57491;42.694;23.314;2023-05-10T03:23:21;7.55;;;4.82;;
70126;SDS011;57491;42.694;23.314;2023-05-10T03:25:53;7.90;;;4.82;;
70126;SDS011;57491;42.694;23.314;2023-05-10T03:28:22;9.90;;;4.93;;
70126;SDS011;57491;42.694;23.314;2023-05-10T03:30:51;9.77;;;4.78;;
70126;SDS011;57491;42.694;23.314;2023-05-10T03:33:19;5.22;;;3.90;;
70126;SDS011;57491;42.694;23.314;2023-05-10T03:35:46;6.38;;;4.80;;
70126;SDS011;57491;42.694;23.314;2023-05-10T03:38:14;7.55;;;5.30;;
70126;SDS011;57491;42.694;23.314;2023-05-10T03:40:41;8.60;;;5.22;;
70126;SDS011;57491;42.694;23.314;2023-05-10T03:43:08;7.13;;;5.00;;
70126;SDS011;57491;42.694;23.314;2023-05-10T03:45:36;7.65;;;4.85;;
70126;SDS011;57491;42.694;23.314;2023-05-10T03:48:03;6.70;;;5.35;;
70126;SDS011;57491;42.694;23.314;2023-05-10T03:50:31;7.28;;;4.53;;
70126;SDS011;57491;42.694;23.314;2023-05-10T03:52:58;6.43;;;5.25;;
70126;SDS011;57491;42.694;23.314;2023-05-10T03:55:25;6.00;;;5.22;;
70126;SDS011;57491;42.694;23.314;2023-05-10T03:57:52;7.43;;;4.68;;
70126;SDS011;57491;42.694;23.314;2023-05-10T04:00:20;6.90;;;4.72;;
70126;SDS011;57491;42.694;23.314;2023-05-10T04:02:49;6.85;;;5.43;;
70126;SDS011;57491;42.694;23.314;2023-05-10T04:05:16;8.93;;;4.53;;
70126;SDS011;57491;42.694;23.314;2023-05-10T04:07:43;7.63;;;5.10;;
70126;SDS011;57491;42.694;23.314;2023-05-10T04:10:10;7.25;;;4.68;;
70126;SDS011;57491;42.694;23.314;2023-05-10T04:12:37;7.43;;;4.82;;
70126;SDS011;57491;42.694;23.314;2023-05-10T04:15:05;6.60;;;5.15;;
70126;SDS011;57491;42.694;23.314;2023-05-10T04:17:33;8.00;;;5.28;;
70126;SDS011;57491;42.694;23.314;2023-05-10T04:20:01;7.03;;;5.10;;
70126;SDS011;57491;42.694;23.314;2023-05-10T04:22:29;7.25;;;5.53;;
70126;SDS011;57491;42.694;23.314;2023-05-10T04:24:56;5.75;;;4.55;;
70126;SDS011;57491;42.694;23.314;2023-05-10T04:27:23;6.63;;;5.03;;
70126;SDS011;57491;42.694;23.314;2023-05-10T04:29:49;10.27;;;5.43;;
70126;SDS011;57491;42.694;23.314;2023-05-10T04:32:17;9.07;;;5.40;;
70126;SDS011;57491;42.694;23.314;2023-05-10T04:34:44;7.38;;;4.43;;
70126;SDS011;57491;42.694;23.314;2023-05-10T04:37:13;7.05;;;4.95;;
70126;SDS011;57491;42.694;23.314;2023-05-10T04:39:40;8.48;;;5.53;;
70126;SDS011;57491;42.694;23.314;2023-05-10T04:42:07;7.13;;;5.55;;
70126;SDS011;57491;42.694;23.314;2023-05-10T04:44:34;11.50;;;5.55;;
70126;SDS011;57491;42.694;23.314;2023-05-10T04:47:01;8.05;;;5.68;;
70126;SDS011;57491;42.694;23.314;2023-05-10T04:49:28;9.70;;;5.17;;
70126;SDS011;57491;42.694;23.314;2023-05-10T04:51:55;7.77;;;5.27;;
70126;SDS011;57491;42.694;23.314;2023-05-10T04:54:24;5.85;;;4.75;;
70126;SDS011;57491;42.694;23.314;2023-05-10T04:56:51;6.18;;;5.00;;
70126;SDS011;57491;42.694;23.314;2023-05-10T04:59:18;6.43;;;5.22;;
70126;SDS011;57491;42.694;23.314;2023-05-10T05:01:46;6.75;;;4.90;;
70126;SDS011;57491;42.694;23.314;2023-05-10T05:04:13;8.63;;;5.80;;
70126;SDS011;57491;42.694;23.314;2023-05-10T05:06:41;7.90;;;6.07;;
70126;SDS011;57491;42.694;23.314;2023-05-10T05:09:08;8.35;;;6.55;;
70126;SDS011;57491;42.694;23.314;2023-05-10T05:11:37;8.82;;;6.07;;
70126;SDS011;57491;42.694;23.314;2023-05-10T05:14:05;7.32;;;5.13;;
70126;SDS011;57491;42.694;23.314;2023-05-10T05:16:32;6.97;;;5.28;;
70126;SDS011;57491;42.694;23.314;2023-05-10T05:18:59;8.32;;;5.90;;
70126;SDS011;57491;42.694;23.314;2023-05-10T05:21:27;7.20;;;5.95;;
70126;SDS011;57491;42.694;23.314;2023-05-10T05:23:54;8.85;;;5.93;;
70126;SDS011;57491;42.694;23.314;2023-05-10T05:26:21;9.97;;;6.27;;
70126;SDS011;57491;42.694;23.314;2023-05-10T05:28:50;8.05;;;5.90;;
70126;SDS011;57491;42.694;23.314;2023-05-10T05:31:19;8.68;;;6.05;;
70126;SDS011;57491;42.694;23.314;2023-05-10T05:33:46;9.07;;;6.32;;
70126;SDS011;57491;42.694;23.314;2023-05-10T05:36:13;10.13;;;6.72;;
70126;SDS011;57491;42.694;23.314;2023-05-10T05:38:40;7.78;;;6.75;;
70126;SDS011;57491;42.694;23.314;2023-05-10T05:41:08;12.05;;;7.30;;
70126;SDS011;57491;42.694;23.314;2023-05-10T05:43:35;10.23;;;6.10;;
70126;SDS011;57491;42.694;23.314;2023-05-10T05:46:03;10.07;;;6.93;;
70126;SDS011;57491;42.694;23.314;2023-05-10T05:48:31;9.65;;;6.70;;
70126;SDS011;57491;42.694;23.314;2023-05-10T05:50:58;9.07;;;6.50;;
70126;SDS011;57491;42.694;23.314;2023-05-10T05:53:25;11.85;;;7.40;;
70126;SDS011;57491;42.694;23.314;2023-05-10T05:55:52;10.52;;;6.93;;
70126;SDS011;57491;42.694;23.314;2023-05-10T05:58:20;11.73;;;7.20;;
70126;SDS011;57491;42.694;23.314;2023-05-10T06:00:48;13.05;;;7.35;;
70126;SDS011;57491;42.694;23.314;2023-05-10T06:03:17;11.27;;;7.00;;
70126;SDS011;57491;42.694;23.314;2023-05-10T06:05:44;9.10;;;6.97;;
70126;SDS011;57491;42.694;23.314;2023-05-10T06:08:11;11.55;;;7.35;;
70126;SDS011;57491;42.694;23.314;2023-05-10T06:10:38;11.02;;;7.78;;
70126;SDS011;57491;42.694;23.314;2023-05-10T06:13:05;10.65;;;6.82;;
70126;SDS011;57491;42.694;23.314;2023-05-10T06:15:32;13.90;;;7.40;;
70126;SDS011;57491;42.694;23.314;2023-05-10T06:17:59;9.57;;;7.23;;
70126;SDS011;57491;42.694;23.314;2023-05-10T06:20:27;9.13;;;6.90;;
70126;SDS011;57491;42.694;23.314;2023-05-10T06:22:56;11.02;;;7.00;;
70126;SDS011;57491;42.694;23.314;2023-05-10T06:25:23;7.63;;;5.80;;
70126;SDS011;57491;42.694;23.314;2023-05-10T06:27:50;11.30;;;5.95;;
70126;SDS011;57491;42.694;23.314;2023-05-10T06:30:22;11.00;;;6.63;;
70126;SDS011;57491;42.694;23.314;2023-05-10T06:32:52;11.75;;;6.55;;
70126;SDS011;57491;42.694;23.314;2023-05-10T06:35:20;11.13;;;6.82;;
70126;SDS011;57491;42.694;23.314;2023-05-10T06:37:49;9.73;;;6.97;;
70126;SDS011;57491;42.694;23.314;2023-05-10T06:40:16;8.85;;;6.65;;
70126;SDS011;57491;42.694;23.314;2023-05-10T06:42:44;11.52;;;6.25;;
70126;SDS011;57491;42.694;23.314;2023-05-10T06:45:11;9.73;;;6.78;;
70126;SDS011;57491;42.694;23.314;2023-05-10T06:50:06;12.30;;;7.10;;
70126;SDS011;57491;42.694;23.314;2023-05-10T06:55:02;10.15;;;6.97;;
70126;SDS011;57491;42.694;23.314;2023-05-10T06:57:30;14.40;;;6.60;;
70126;SDS011;57491;42.694;23.314;2023-05-10T06:59:58;8.80;;;6.28;;
70126;SDS011;57491;42.694;23.314;2023-05-10T07:02:26;10.50;;;6.55;;
70126;SDS011;57491;42.694;23.314;2023-05-10T07:04:53;10.47;;;6.97;;
70126;SDS011;57491;42.694;23.314;2023-05-10T07:07:20;9.38;;;6.97;;
70126;SDS011;57491;42.694;23.314;2023-05-10T07:09:47;8.57;;;6.23;;
70126;SDS011;57491;42.694;23.314;2023-05-10T07:12:16;13.40;;;8.15;;
70126;SDS011;57491;42.694;23.314;2023-05-10T07:14:44;9.40;;;6.40;;
70126;SDS011;57491;42.694;23.314;2023-05-10T07:17:11;9.90;;;6.38;;
70126;SDS011;57491;42.694;23.314;2023-05-10T07:19:38;12.23;;;6.20;;
70126;SDS011;57491;42.694;23.314;2023-05-10T07:22:05;8.88;;;6.85;;
70126;SDS011;57491;42.694;23.314;2023-05-10T07:24:32;8.27;;;6.50;;
70126;SDS011;57491;42.694;23.314;2023-05-10T07:26:59;8.87;;;6.43;;
70126;SDS011;57491;42.694;23.314;2023-05-10T07:29:27;10.77;;;6.67;;
70126;SDS011;57491;42.694;23.314;2023-05-10T07:31:54;9.88;;;6.97;;
70126;SDS011;57491;42.694;23.314;2023-05-10T07:34:21;9.32;;;7.10;;
70126;SDS011;57491;42.694;23.314;2023-05-10T07:36:49;8.15;;;5.88;;
70126;SDS011;57491;42.694;23.314;2023-05-10T07:39:15;9.68;;;6.80;;
70126;SDS011;57491;42.694;23.314;2023-05-10T07:41:43;13.40;;;6.77;;
70126;SDS011;57491;42.694;23.314;2023-05-10T07:44:10;9.20;;;7.20;;
70126;SDS011;57491;42.694;23.314;2023-05-10T07:46:38;12.52;;;7.97;;
70126;SDS011;57491;42.694;23.314;2023-05-10T07:49:05;11.55;;;6.40;;
70126;SDS011;57491;42.694;23.314;2023-05-10T07:51:32;12.07;;;8.05;;
70126;SDS011;57491;42.694;23.314;2023-05-10T07:53:59;13.90;;;7.82;;
70126;SDS011;57491;42.694;23.314;2023-05-10T07:56:28;13.05;;;8.95;;
70126;SDS011;57491;42.694;23.314;2023-05-10T07:58:57;11.30;;;7.88;;
70126;SDS011;57491;42.694;23.314;2023-05-10T08:01:25;9.13;;;6.18;;
70126;SDS011;57491;42.694;23.314;2023-05-10T08:03:54;10.32;;;7.93;;
70126;SDS011;57491;42.694;23.314;2023-05-10T08:06:21;14.98;;;9.25;;
70126;SDS011;57491;42.694;23.314;2023-05-10T08:08:48;15.23;;;7.53;;
70126;SDS011;57491;42.694;23.314;2023-05-10T08:11:16;17.65;;;10.73;;
70126;SDS011;57491;42.694;23.314;2023-05-10T08:13:43;11.48;;;8.68;;
70126;SDS011;57491;42.694;23.314;2023-05-10T08:16:10;14.77;;;8.32;;
70126;SDS011;57491;42.694;23.314;2023-05-10T08:18:37;12.75;;;8.25;;
70126;SDS011;57491;42.694;23.314;2023-05-10T08:21:06;11.93;;;7.43;;
70126;SDS011;57491;42.694;23.314;2023-05-10T08:23:33;14.10;;;7.88;;
70126;SDS011;57491;42.694;23.314;2023-05-10T08:26:00;9.68;;;6.80;;
70126;SDS011;57491;42.694;23.314;2023-05-10T08:28:27;11.20;;;7.63;;
70126;SDS011;57491;42.694;23.314;2023-05-10T08:30:54;10.65;;;7.68;;
70126;SDS011;57491;42.694;23.314;2023-05-10T08:33:22;9.98;;;7.97;;
70126;SDS011;57491;42.694;23.314;2023-05-10T08:35:49;8.70;;;7.03;;
70126;SDS011;57491;42.694;23.314;2023-05-10T08:38:17;8.73;;;6.53;;
70126;SDS011;57491;42.694;23.314;2023-05-10T08:40:44;12.32;;;7.32;;
70126;SDS011;57491;42.694;23.314;2023-05-10T08:43:12;10.13;;;7.87;;
70126;SDS011;57491;42.694;23.314;2023-05-10T08:45:41;14.43;;;7.90;;
70126;SDS011;57491;42.694;23.314;2023-05-10T08:48:10;12.13;;;8.63;;
70126;SDS011;57491;42.694;23.314;2023-05-10T08:50:38;9.98;;;8.27;;
70126;SDS011;57491;42.694;23.314;2023-05-10T08:53:08;10.82;;;7.28;;
70126;SDS011;57491;42.694;23.314;2023-05-10T08:55:38;13.95;;;9.55;;
70126;SDS011;57491;42.694;23.314;2023-05-10T08:58:07;11.88;;;9.40;;
70126;SDS011;57491;42.694;23.314;2023-05-10T09:00:35;10.23;;;8.20;;
70126;SDS011;57491;42.694;23.314;2023-05-10T09:03:03;10.07;;;7.68;;
70126;SDS011;57491;42.694;23.314;2023-05-10T09:05:32;9.80;;;8.00;;
70126;SDS011;57491;42.694;23.314;2023-05-10T09:07:59;13.52;;;9.25;;
70126;SDS011;57491;42.694;23.314;2023-05-10T09:10:27;12.63;;;9.50;;
70126;SDS011;57491;42.694;23.314;2023-05-10T09:12:57;9.43;;;8.05;;
70126;SDS011;57491;42.694;23.314;2023-05-10T09:15:24;11.10;;;7.97;;
70126;SDS011;57491;42.694;23.314;2023-05-10T09:17:52;11.48;;;8.50;;
70126;SDS011;57491;42.694;23.314;2023-05-10T09:20:21;10.65;;;7.93;;
70126;SDS011;57491;42.694;23.314;2023-05-10T09:22:48;12.57;;;7.82;;
70126;SDS011;57491;42.694;23.314;2023-05-10T09:25:15;12.25;;;8.73;;
70126;SDS011;57491;42.694;23.314;2023-05-10T09:30:15;13.30;;;9.82;;
70126;SDS011;57491;42.694;23.314;2023-05-10T09:32:43;15.55;;;8.90;;
70126;SDS011;57491;42.694;23.314;2023-05-10T09:35:12;13.60;;;9.80;;
70126;SDS011;57491;42.694;23.314;2023-05-10T09:37:40;12.70;;;8.35;;
70126;SDS011;57491;42.694;23.314;2023-05-10T09:42:38;13.13;;;9.50;;
70126;SDS011;57491;42.694;23.314;2023-05-10T09:45:06;12.40;;;8.13;;
70126;SDS011;57491;42.694;23.314;2023-05-10T09:47:35;14.07;;;9.38;;
70126;SDS011;57491;42.694;23.314;2023-05-10T09:50:02;15.07;;;11.02;;
70126;SDS011;57491;42.694;23.314;2023-05-10T09:52:31;14.77;;;10.65;;
70126;SDS011;57491;42.694;23.314;2023-05-10T09:55:13;16.05;;;10.05;;
70126;SDS011;57491;42.694;23.314;2023-05-10T09:57:40;11.27;;;8.23;;
70126;SDS011;57491;42.694;23.314;2023-05-10T10:00:08;10.05;;;8.32;;
70126;SDS011;57491;42.694;23.314;2023-05-10T10:02:37;11.02;;;8.60;;
70126;SDS011;57491;42.694;23.314;2023-05-10T10:05:06;10.48;;;8.20;;
70126;SDS011;57491;42.694;23.314;2023-05-10T10:10:00;11.45;;;9.45;;
70126;SDS011;57491;42.694;23.314;2023-05-10T10:12:27;10.50;;;8.40;;
70126;SDS011;57491;42.694;23.314;2023-05-10T10:14:55;10.52;;;8.18;;
70126;SDS011;57491;42.694;23.314;2023-05-10T10:17:23;11.75;;;9.60;;
70126;SDS011;57491;42.694;23.314;2023-05-10T10:19:55;12.88;;;9.73;;
70126;SDS011;57491;42.694;23.314;2023-05-10T10:22:23;16.48;;;10.85;;
70126;SDS011;57491;42.694;23.314;2023-05-10T10:24:50;12.95;;;8.50;;
70126;SDS011;57491;42.694;23.314;2023-05-10T10:27:20;10.05;;;7.10;;
70126;SDS011;57491;42.694;23.314;2023-05-10T10:29:55;10.05;;;7.63;;
70126;SDS011;57491;42.694;23.314;2023-05-10T10:32:42;9.98;;;8.00;;
70126;SDS011;57491;42.694;23.314;2023-05-10T10:35:28;10.95;;;7.00;;
70126;SDS011;57491;42.694;23.314;2023-05-10T10:37:57;7.60;;;6.28;;
70126;SDS011;57491;42.694;23.314;2023-05-10T10:40:27;9.73;;;6.70;;
70126;SDS011;57491;42.694;23.314;2023-05-10T10:42:55;10.15;;;7.30;;
70126;SDS011;57491;42.694;23.314;2023-05-10T10:45:23;9.48;;;6.50;;
70126;SDS011;57491;42.694;23.314;2023-05-10T10:50:57;8.00;;;6.57;;
70126;SDS011;57491;42.694;23.314;2023-05-10T10:53:25;11.68;;;7.85;;
70126;SDS011;57491;42.694;23.314;2023-05-10T10:56:02;9.98;;;7.25;;
70126;SDS011;57491;42.694;23.314;2023-05-10T10:58:33;10.07;;;7.95;;
70126;SDS011;57491;42.694;23.314;2023-05-10T11:01:10;8.82;;;6.53;;
70126;SDS011;57491;42.694;23.314;2023-05-10T11:03:39;13.13;;;7.00;;
70126;SDS011;57491;42.694;23.314;2023-05-10T11:06:07;12.20;;;8.27;;
70126;SDS011;57491;42.694;23.314;2023-05-10T11:08:40;8.55;;;5.80;;
70126;SDS011;57491;42.694;23.314;2023-05-10T11:11:09;8.15;;;5.57;;
70126;SDS011;57491;42.694;23.314;2023-05-10T11:13:40;7.03;;;6.33;;
70126;SDS011;57491;42.694;23.314;2023-05-10T11:16:12;7.45;;;6.38;;
70126;SDS011;57491;42.694;23.314;2023-05-10T11:18:52;7.53;;;5.75;;
70126;SDS011;57491;42.694;23.314;2023-05-10T11:21:22;8.70;;;6.45;;
70126;SDS011;57491;42.694;23.314;2023-05-10T11:23:50;8.80;;;6.65;;
70126;SDS011;57491;42.694;23.314;2023-05-10T11:26:21;7.88;;;6.07;;
70126;SDS011;57491;42.694;23.314;2023-05-10T11:28:50;9.65;;;6.30;;
70126;SDS011;57491;42.694;23.314;2023-05-10T11:31:19;9.32;;;6.68;;
70126;SDS011;57491;42.694;23.314;2023-05-10T11:33:47;9.32;;;6.15;;
70126;SDS011;57491;42.694;23.314;2023-05-10T11:36:15;14.63;;;7.07;;
70126;SDS011;57491;42.694;23.314;2023-05-10T11:38:45;9.52;;;6.25;;
70126;SDS011;57491;42.694;23.314;2023-05-10T11:41:12;8.73;;;5.97;;
70126;SDS011;57491;42.694;23.314;2023-05-10T11:43:40;7.95;;;6.22;;
70126;SDS011;57491;42.694;23.314;2023-05-10T11:46:09;15.38;;;6.80;;
70126;SDS011;57491;42.694;23.314;2023-05-10T11:48:38;12.50;;;6.20;;
70126;SDS011;57491;42.694;23.314;2023-05-10T11:51:06;8.13;;;4.85;;
70126;SDS011;57491;42.694;23.314;2023-05-10T11:53:34;10.02;;;6.95;;
70126;SDS011;57491;42.694;23.314;2023-05-10T11:56:05;10.43;;;6.87;;
70126;SDS011;57491;42.694;23.314;2023-05-10T11:58:33;10.20;;;6.55;;
70126;SDS011;57491;42.694;23.314;2023-05-10T12:01:01;8.77;;;5.15;;
70126;SDS011;57491;42.694;23.314;2023-05-10T12:03:29;13.75;;;7.25;;
70126;SDS011;57491;42.694;23.314;2023-05-10T12:05:57;7.80;;;6.43;;
70126;SDS011;57491;42.694;23.314;2023-05-10T12:08:25;15.32;;;7.63;;
70126;SDS011;57491;42.694;23.314;2023-05-10T12:11:05;9.75;;;7.28;;
70126;SDS011;57491;42.694;23.314;2023-05-10T12:13:37;9.10;;;6.95;;
70126;SDS011;57491;42.694;23.314;2023-05-10T12:16:12;10.43;;;6.57;;
70126;SDS011;57491;42.694;23.314;2023-05-10T12:18:39;11.80;;;7.90;;
70126;SDS011;57491;42.694;23.314;2023-05-10T12:23:35;11.85;;;7.50;;
70126;SDS011;57491;42.694;23.314;2023-05-10T12:26:03;11.13;;;6.60;;
70126;SDS011;57491;42.694;23.314;2023-05-10T12:28:32;11.00;;;7.30;;
70126;SDS011;57491;42.694;23.314;2023-05-10T12:30:59;9.98;;;7.47;;
70126;SDS011;57491;42.694;23.314;2023-05-10T12:33:26;8.47;;;7.03;;
70126;SDS011;57491;42.694;23.314;2023-05-10T12:35:53;8.35;;;5.85;;
70126;SDS011;57491;42.694;23.314;2023-05-10T12:38:28;10.38;;;7.15;;
70126;SDS011;57491;42.694;23.314;2023-05-10T12:40:57;12.98;;;6.38;;
70126;SDS011;57491;42.694;23.314;2023-05-10T12:45:53;13.52;;;7.53;;
70126;SDS011;57491;42.694;23.314;2023-05-10T12:48:20;13.30;;;7.10;;
70126;SDS011;57491;42.694;23.314;2023-05-10T12:50:47;9.63;;;7.10;;
70126;SDS011;57491;42.694;23.314;2023-05-10T12:53:14;11.35;;;7.30;;
70126;SDS011;57491;42.694;23.314;2023-05-10T12:55:41;8.15;;;6.75;;
70126;SDS011;57491;42.694;23.314;2023-05-10T12:58:09;12.63;;;7.97;;
70126;SDS011;57491;42.694;23.314;2023-05-10T13:00:36;11.13;;;7.60;;
70126;SDS011;57491;42.694;23.314;2023-05-10T13:03:04;9.23;;;5.88;;
70126;SDS011;57491;42.694;23.314;2023-05-10T13:05:32;8.60;;;6.65;;
70126;SDS011;57491;42.694;23.314;2023-05-10T13:07:59;12.60;;;6.95;;
70126;SDS011;57491;42.694;23.314;2023-05-10T13:10:26;11.23;;;7.10;;
70126;SDS011;57491;42.694;23.314;2023-05-10T13:12:53;11.60;;;6.85;;
70126;SDS011;57491;42.694;23.314;2023-05-10T13:15:20;8.63;;;6.43;;
70126;SDS011;57491;42.694;23.314;2023-05-10T13:17:47;13.30;;;7.70;;
70126;SDS011;57491;42.694;23.314;2023-05-10T13:20:15;12.38;;;7.07;;
70126;SDS011;57491;42.694;23.314;2023-05-10T13:22:43;10.48;;;7.78;;
70126;SDS011;57491;42.694;23.314;2023-05-10T13:25:10;12.02;;;8.40;;
70126;SDS011;57491;42.694;23.314;2023-05-10T13:27:38;11.00;;;7.45;;
70126;SDS011;57491;42.694;23.314;2023-05-10T13:30:06;12.43;;;8.57;;
70126;SDS011;57491;42.694;23.314;2023-05-10T13:32:34;13.32;;;8.57;;
70126;SDS011;57491;42.694;23.314;2023-05-10T13:35:02;14.13;;;7.28;;
70126;SDS011;57491;42.694;23.314;2023-05-10T13:37:31;12.68;;;7.18;;
70126;SDS011;57491;42.694;23.314;2023-05-10T13:40:00;9.88;;;6.80;;
70126;SDS011;57491;42.694;23.314;2023-05-10T13:42:28;9.48;;;6.47;;
70126;SDS011;57491;42.694;23.314;2023-05-10T13:44:54;11.38;;;7.53;;
70126;SDS011;57491;42.694;23.314;2023-05-10T13:47:21;7.93;;;6.28;;
70126;SDS011;57491;42.694;23.314;2023-05-10T13:49:49;10.33;;;7.20;;
70126;SDS011;57491;42.694;23.314;2023-05-10T13:52:16;8.02;;;5.60;;
70126;SDS011;57491;42.694;23.314;2023-05-10T13:54:44;10.30;;;6.55;;
70126;SDS011;57491;42.694;23.314;2023-05-10T13:57:11;11.65;;;7.07;;
70126;SDS011;57491;42.694;23.314;2023-05-10T13:59:39;12.15;;;6.45;;
70126;SDS011;57491;42.694;23.314;2023-05-10T14:02:06;13.40;;;7.35;;
70126;SDS011;57491;42.694;23.314;2023-05-10T14:04:33;10.80;;;7.38;;
70126;SDS011;57491;42.694;23.314;2023-05-10T14:07:01;12.00;;;7.57;;
70126;SDS011;57491;42.694;23.314;2023-05-10T14:09:29;14.00;;;7.93;;
70126;SDS011;57491;42.694;23.314;2023-05-10T14:11:57;9.38;;;6.50;;
70126;SDS011;57491;42.694;23.314;2023-05-10T14:14:39;12.25;;;5.75;;
70126;SDS011;57491;42.694;23.314;2023-05-10T14:17:06;9.20;;;7.00;;
70126;SDS011;57491;42.694;23.314;2023-05-10T14:19:33;11.07;;;7.10;;
70126;SDS011;57491;42.694;23.314;2023-05-10T14:22:00;9.63;;;7.07;;
70126;SDS011;57491;42.694;23.314;2023-05-10T14:24:28;10.82;;;7.07;;
70126;SDS011;57491;42.694;23.314;2023-05-10T14:26:55;11.70;;;8.45;;
70126;SDS011;57491;42.694;23.314;2023-05-10T14:29:23;9.60;;;7.00;;
70126;SDS011;57491;42.694;23.314;2023-05-10T14:31:50;14.95;;;7.03;;
70126;SDS011;57491;42.694;23.314;2023-05-10T14:34:17;9.00;;;5.57;;
70126;SDS011;57491;42.694;23.314;2023-05-10T14:36:45;8.65;;;6.22;;
70126;SDS011;57491;42.694;23.314;2023-05-10T14:39:12;10.25;;;7.65;;
70126;SDS011;57491;42.694;23.314;2023-05-10T14:41:39;10.57;;;6.65;;
70126;SDS011;57491;42.694;23.314;2023-05-10T14:44:08;11.98;;;7.38;;
70126;SDS011;57491;42.694;23.314;2023-05-10T14:46:36;9.37;;;7.27;;
70126;SDS011;57491;42.694;23.314;2023-05-10T14:49:03;13.30;;;7.72;;
70126;SDS011;57491;42.694;23.314;2023-05-10T14:51:30;9.25;;;6.75;;
70126;SDS011;57491;42.694;23.314;2023-05-10T14:53:57;11.75;;;7.68;;
70126;SDS011;57491;42.694;23.314;2023-05-10T14:56:24;10.50;;;7.27;;
70126;SDS011;57491;42.694;23.314;2023-05-10T14:58:53;11.55;;;8.18;;
70126;SDS011;57491;42.694;23.314;2023-05-10T15:01:20;10.32;;;7.25;;
70126;SDS011;57491;42.694;23.314;2023-05-10T15:03:49;13.52;;;8.32;;
70126;SDS011;57491;42.694;23.314;2023-05-10T15:06:17;11.48;;;7.47;;
70126;SDS011;57491;42.694;23.314;2023-05-10T15:08:49;12.50;;;7.88;;
70126;SDS011;57491;42.694;23.314;2023-05-10T15:11:16;10.45;;;7.40;;
70126;SDS011;57491;42.694;23.314;2023-05-10T15:13:43;11.52;;;6.65;;